Time;durP1;ratioP1;P1;durP2;ratioP2;P2;SDS_P1;SDS_P2;PMS_P1;PMS_P2;Temp;Humidity;BMP_temperature;BMP_pressure;BME280_temperature;BME280_humidity;BME280_pressure;Samples;Min_cycle;Max_cycle;Signal;HPM_P1;HPM_P2
2021/12/31 00:00:16;;;;;;;19.92;12.75;;;;;;;7.08;65.71;95582.06;4929465;29;20411;-78
2021/12/31 00:02:43;;;;;;;19.95;12.88;;;;;;;7.13;66.34;95579.72;4911920;29;20067;-78
2021/12/31 00:05:09;;;;;;;25.13;13.60;;;;;;;7.11;66.12;95573.94;4895831;29;20484;-78
2021/12/31 00:07:35;;;;;;;20.23;13.43;;;;;;;7.15;66.05;95582.91;4894068;29;20075;-79
2021/12/31 00:10:01;;;;;;;21.13;15.02;;;;;;;7.13;66.53;95577.13;4910618;29;20039;-78
2021/12/31 00:12:30;;;;;;;18.85;13.25;;;;;;;7.19;66.30;95596.28;4912912;29;20118;-78
2021/12/31 00:14:55;;;;;;;18.15;13.38;;;;;;;7.22;65.50;95591.50;4895340;29;20087;-78
2021/12/31 00:17:21;;;;;;;21.85;13.88;;;;;;;7.30;66.00;95597.50;4910157;29;20499;-78
2021/12/31 00:19:47;;;;;;;18.50;13.20;;;;;;;7.34;65.40;95609.88;4895287;29;20059;-78
2021/12/31 00:24:58;;;;;;;27.60;16.20;;;;;;;7.27;65.58;95598.69;4898802;29;20515;-78
2021/12/31 00:27:26;;;;;;;18.55;13.32;;;;;;;7.32;65.60;95604.09;4909952;29;20099;-78
2021/12/31 00:29:52;;;;;;;20.58;14.30;;;;;;;7.35;65.41;95601.13;4879743;29;20039;-78
2021/12/31 00:32:18;;;;;;;20.50;13.85;;;;;;;7.35;65.04;95595.94;4909754;29;20580;-78
2021/12/31 00:34:44;;;;;;;20.65;13.23;;;;;;;7.30;65.36;95598.28;4879321;29;20036;-78
2021/12/31 00:37:09;;;;;;;17.23;13.55;;;;;;;7.23;65.27;95610.41;4908486;29;20500;-78
2021/12/31 00:39:35;;;;;;;18.92;13.90;;;;;;;7.19;65.79;95607.41;4908886;29;20044;-78
2021/12/31 00:42:00;;;;;;;20.83;15.15;;;;;;;7.14;65.27;95612.34;4909546;29;20472;-78
2021/12/31 00:44:26;;;;;;;20.88;14.02;;;;;;;7.11;66.04;95610.13;4893579;29;20035;-78
2021/12/31 00:46:51;;;;;;;24.02;15.57;;;;;;;7.10;65.58;95598.19;4893427;29;20028;-78
2021/12/31 00:49:16;;;;;;;20.33;14.52;;;;;;;7.09;66.13;95588.03;4926140;29;20179;-79
2021/12/31 00:51:44;;;;;;;26.85;16.15;;;;;;;7.07;66.22;95580.47;4895506;29;20031;-78
2021/12/31 00:54:10;;;;;;;20.95;13.57;;;;;;;7.02;66.00;95575.09;4893290;29;20091;-78
2021/12/31 00:56:37;;;;;;;19.27;13.48;;;;;;;7.02;65.57;95564.75;4894676;29;20032;-79
2021/12/31 00:59:03;;;;;;;18.75;13.80;;;;;;;6.97;65.75;95569.66;4878702;29;20067;-78
2021/12/31 01:01:31;;;;;;;19.30;13.35;;;;;;;6.97;65.62;95572.25;4893244;29;20529;-78
2021/12/31 01:03:56;;;;;;;19.70;12.43;;;;;;;6.95;65.58;95574.25;4909818;29;20051;-78
2021/12/31 01:06:22;;;;;;;17.30;11.63;;;;;;;6.81;65.74;95568.19;4926494;29;20036;-78
2021/12/31 01:08:47;;;;;;;16.48;10.80;;;;;;;6.71;65.62;95569.53;4893728;29;20039;-78
2021/12/31 01:11:13;;;;;;;14.43;10.95;;;;;;;6.63;66.11;95571.25;4894665;29;20036;-78
2021/12/31 01:13:53;;;;;;;13.15;9.50;;;;;;;6.53;66.23;95575.97;4910342;29;20039;-78
2021/12/31 01:16:21;;;;;;;12.98;10.18;;;;;;;6.43;66.59;95567.72;4925159;29;20044;-78
2021/12/31 01:21:18;;;;;;;13.13;10.40;;;;;;;6.27;66.92;95581.72;4926739;29;20124;-78
2021/12/31 01:23:44;;;;;;;15.35;9.77;;;;;;;6.28;66.70;95578.16;4907422;29;20110;-78
2021/12/31 01:26:11;;;;;;;13.07;9.43;;;;;;;6.28;66.87;95588.47;4908360;29;20043;-78
2021/12/31 01:28:37;;;;;;;12.63;9.45;;;;;;;6.31;66.99;95602.78;4909296;29;20044;-78
2021/12/31 01:31:03;;;;;;;11.90;8.93;;;;;;;6.24;66.83;95596.78;4891944;29;20039;-78
2021/12/31 01:33:31;;;;;;;11.60;8.63;;;;;;;6.16;67.59;95600.28;4877135;29;20067;-78
2021/12/31 01:35:57;;;;;;;10.57;8.75;;;;;;;6.16;67.62;95594.31;4892613;29;20103;-78
2021/12/31 01:38:22;;;;;;;10.38;8.23;;;;;;;6.18;67.59;95593.16;4926403;29;20032;-78
2021/12/31 01:40:49;;;;;;;10.85;8.50;;;;;;;6.19;67.77;95594.78;4924100;29;20032;-78
2021/12/31 01:43:15;;;;;;;12.27;9.07;;;;;;;6.20;67.25;95598.16;4908041;29;20127;-78
2021/12/31 01:45:46;;;;;;;12.35;9.00;;;;;;;6.21;67.42;95602.31;4908493;29;20087;-78
2021/12/31 01:48:28;;;;;;;11.40;9.13;;;;;;;6.27;67.37;95596.41;4925331;29;20039;-78
2021/12/31 01:50:53;;;;;;;13.88;9.40;;;;;;;6.31;66.77;95607.97;4923669;29;20044;-78
2021/12/31 01:53:22;;;;;;;11.40;9.13;;;;;;;6.28;67.33;95603.16;4907654;29;20884;-78
2021/12/31 01:55:47;;;;;;;12.48;9.10;;;;;;;6.28;67.20;95616.09;4922679;29;20067;-78
2021/12/31 01:58:15;;;;;;;15.73;11.00;;;;;;;6.28;67.25;95613.50;4905583;29;20424;-78
2021/12/31 02:00:40;;;;;;;14.88;10.80;;;;;;;6.22;66.93;95619.41;4892248;29;20492;-78
2021/12/31 02:03:08;;;;;;;17.60;12.25;;;;;;;6.16;67.84;95614.97;4908085;29;20028;-78
2021/12/31 02:05:35;;;;;;;14.00;10.95;;;;;;;6.15;68.03;95621.91;4907744;29;20035;-78
2021/12/31 02:08:01;;;;;;;14.93;10.88;;;;;;;6.18;67.78;95613.00;4924895;29;20072;-78
2021/12/31 02:10:26;;;;;;;14.55;10.80;;;;;;;6.24;67.93;95610.50;4907656;29;20524;-78
2021/12/31 02:12:52;;;;;;;11.73;9.40;;;;;;;6.26;67.30;95615.47;4907687;29;20651;-78
2021/12/31 02:15:18;;;;;;;13.00;10.05;;;;;;;6.33;67.12;95611.16;4893506;29;20064;-78
2021/12/31 02:17:44;;;;;;;16.63;10.23;;;;;;;6.32;67.08;95614.72;4907154;29;20067;-78
2021/12/31 02:20:10;;;;;;;10.73;8.85;;;;;;;6.33;66.89;95611.16;4892841;29;20032;-78
2021/12/31 02:22:38;;;;;;;11.82;8.68;;;;;;;6.36;66.56;95610.00;4930792;23;20044;-78
2021/12/31 02:25:07;;;;;;;12.90;9.80;;;;;;;6.33;66.71;95622.28;4932966;29;20436;-78
2021/12/31 02:27:35;;;;;;;13.60;9.82;;;;;;;6.35;66.25;95619.53;4935596;29;20043;-78
2021/12/31 02:30:01;;;;;;;13.80;9.48;;;;;;;6.35;66.30;95624.72;4941180;29;20151;-78
2021/12/31 02:32:32;;;;;;;13.45;9.85;;;;;;;6.32;66.36;95622.47;4944000;29;20503;-78
2021/12/31 02:34:57;;;;;;;10.13;8.73;;;;;;;6.37;66.48;95620.16;4925965;29;20126;-78
2021/12/31 02:37:25;;;;;;;14.40;9.35;;;;;;;6.38;65.81;95619.16;4925815;29;20055;-78
2021/12/31 02:39:51;;;;;;;9.77;8.73;;;;;;;6.40;65.92;95626.72;4927210;29;20063;-77
2021/12/31 02:42:16;;;;;;;11.90;8.93;;;;;;;6.40;65.95;95627.53;4952095;29;20032;-78
2021/12/31 02:44:42;;;;;;;9.95;8.70;;;;;;;6.44;65.38;95640.88;4937871;29;20043;-78
2021/12/31 02:47:08;;;;;;;14.18;9.43;;;;;;;6.44;65.66;95633.91;4951636;29;20083;-78
2021/12/31 02:49:39;;;;;;;11.23;9.25;;;;;;;6.46;65.91;95647.44;4946536;29;20035;-78
2021/12/31 02:52:06;;;;;;;14.57;9.68;;;;;;;6.44;65.92;95649.41;4944341;29;20102;-78
2021/12/31 02:54:32;;;;;;;16.25;10.85;;;;;;;6.38;66.06;95642.41;4932504;23;20048;-78
2021/12/31 02:56:58;;;;;;;15.98;11.13;;;;;;;6.35;65.58;95645.38;4940998;23;20198;-78
2021/12/31 02:59:23;;;;;;;12.88;8.98;;;;;;;6.30;65.46;95639.94;4934626;29;20448;-78
2021/12/31 03:01:49;;;;;;;12.80;9.98;;;;;;;6.27;65.66;95651.44;4916815;23;20036;-78
2021/12/31 03:04:14;;;;;;;10.98;8.82;;;;;;;6.26;65.68;95669.72;4926157;23;20048;-78
2021/12/31 03:06:40;;;;;;;11.73;9.20;;;;;;;6.20;66.09;95660.13;4896627;29;20177;-78
2021/12/31 03:09:05;;;;;;;13.15;9.63;;;;;;;6.22;65.47;95655.56;4882891;29;20042;-79
2021/12/31 03:11:31;;;;;;;12.13;9.55;;;;;;;6.11;65.52;95654.25;4916210;29;20040;-78
2021/12/31 03:13:56;;;;;;;12.77;9.38;;;;;;;6.06;65.21;95658.38;4915900;29;20099;-78
2021/12/31 03:16:22;;;;;;;13.05;9.25;;;;;;;5.94;65.85;95658.84;4899299;29;20036;-79
2021/12/31 03:18:48;;;;;;;13.90;8.95;;;;;;;5.83;65.36;95661.88;4882760;29;20044;-78
2021/12/31 03:21:20;;;;;;;11.82;8.57;;;;;;;5.78;65.27;95664.19;4881407;29;20115;-78
2021/12/31 03:23:46;;;;;;;10.02;8.10;;;;;;;5.66;65.59;95663.06;4913724;29;20055;-78
2021/12/31 03:26:11;;;;;;;9.73;8.18;;;;;;;5.62;65.93;95664.41;4898304;29;20400;-78
2021/12/31 03:28:36;;;;;;;18.10;9.48;;;;;;;5.58;65.84;95668.31;4899468;29;20032;-78
2021/12/31 03:31:02;;;;;;;9.98;8.55;;;;;;;5.54;65.82;95680.00;4900392;29;20130;-78
2021/12/31 03:33:27;;;;;;;11.90;8.10;;;;;;;5.42;66.27;95679.63;4918564;29;20044;-78
2021/12/31 03:35:53;;;;;;;10.15;7.68;;;;;;;5.32;66.62;95671.34;4918075;29;20031;-77
2021/12/31 03:38:19;;;;;;;10.77;8.05;;;;;;;5.34;66.38;95667.59;4917921;29;20519;-78
2021/12/31 03:40:46;;;;;;;14.73;7.50;;;;;;;5.37;66.65;95667.28;4877270;29;20040;-78
2021/12/31 03:43:11;;;;;;;9.00;7.78;;;;;;;5.33;66.38;95675.53;4918151;29;20116;-78
2021/12/31 03:45:41;;;;;;;7.63;6.93;;;;;;;5.38;66.12;95686.94;4899754;29;20168;-78
2021/12/31 03:48:06;;;;;;;9.95;8.00;;;;;;;5.32;66.47;95686.81;4918449;29;20036;-78
2021/12/31 03:50:31;;;;;;;11.88;9.63;;;;;;;5.35;66.69;95695.00;4918198;29;20054;-78
2021/12/31 03:52:57;;;;;;;13.63;10.07;;;;;;;5.42;67.18;95705.41;4918315;29;20050;-78
2021/12/31 03:55:22;;;;;;;18.77;10.50;;;;;;;5.54;66.21;95703.22;4900047;29;20032;-78
2021/12/31 03:57:48;;;;;;;15.77;11.18;;;;;;;5.65;65.66;95700.16;4917971;29;20055;-78
2021/12/31 04:00:14;;;;;;;16.60;11.15;;;;;;;5.79;66.17;95701.94;4918257;29;20040;-78
2021/12/31 04:02:39;;;;;;;14.45;10.48;;;;;;;5.93;64.72;95698.56;4917851;29;20042;-78
2021/12/31 04:05:05;;;;;;;21.80;11.45;;;;;;;5.90;64.56;95698.94;4887555;29;20087;-78
2021/12/31 04:07:31;;;;;;;17.30;9.57;;;;;;;5.83;64.12;95698.00;4887510;29;20552;-78
2021/12/31 04:09:56;;;;;;;13.13;9.38;;;;;;;5.82;63.75;95680.91;4918609;29;20044;-78
2021/12/31 04:12:21;;;;;;;11.90;8.93;;;;;;;5.76;64.32;95684.22;4884424;29;20204;-79
2021/12/31 04:14:47;;;;;;;9.55;7.88;;;;;;;5.68;64.65;95677.38;4919487;29;20043;-80
2021/12/31 04:17:12;;;;;;;10.82;8.45;;;;;;;5.59;64.85;95690.56;4919049;29;20039;-80
2021/12/31 04:19:38;;;;;;;11.43;8.25;;;;;;;5.58;64.75;95688.97;4908053;29;20036;-80
2021/12/31 04:22:08;;;;;;;10.70;8.18;;;;;;;5.54;64.71;95680.00;4918995;29;20087;-79
2021/12/31 04:27:08;;;;;;;9.35;7.65;;;;;;;5.48;64.75;95680.69;4938383;29;20181;-78
2021/12/31 04:29:36;;;;;;;8.80;7.18;;;;;;;5.46;65.61;95678.28;4937873;29;20555;-79
2021/12/31 04:32:02;;;;;;;8.18;7.25;;;;;;;5.52;65.01;95692.25;4937700;29;20040;-79
2021/12/31 04:34:28;;;;;;;11.60;8.38;;;;;;;5.58;65.61;95683.81;4937898;29;20036;-79
2021/12/31 04:36:53;;;;;;;14.90;10.18;;;;;;;5.60;64.90;95687.00;4919273;29;20110;-80
2021/12/31 04:39:19;;;;;;;17.05;10.80;;;;;;;5.61;65.05;95693.75;4936457;29;20444;-80
2021/12/31 04:41:44;;;;;;;18.52;11.40;;;;;;;5.64;64.50;95695.97;4937085;29;20036;-80
2021/12/31 04:44:12;;;;;;;13.40;10.15;;;;;;;5.64;64.46;95693.41;4904701;29;20464;-80
2021/12/31 04:46:37;;;;;;;17.70;9.77;;;;;;;5.59;64.48;95700.88;4889157;29;20035;-79
2021/12/31 04:49:03;;;;;;;12.00;8.20;;;;;;;5.55;64.44;95695.28;4935348;29;20098;-79
2021/12/31 04:51:29;;;;;;;15.95;9.63;;;;;;;5.60;64.54;95708.44;4919892;29;20044;-80
2021/12/31 04:53:54;;;;;;;18.90;10.82;;;;;;;5.65;65.25;95710.47;4903732;29;20060;-80
2021/12/31 04:56:24;;;;;;;16.60;11.63;;;;;;;5.75;64.46;95700.69;4920058;29;20035;-80
2021/12/31 04:58:49;;;;;;;18.75;14.95;;;;;;;5.83;63.49;95703.16;4918628;29;20206;-80
2021/12/31 05:01:17;;;;;;;15.13;12.07;;;;;;;5.92;63.37;95691.00;4919790;29;20035;-80
2021/12/31 05:03:42;;;;;;;16.08;12.23;;;;;;;5.96;63.21;95703.34;4919377;29;20087;-80
2021/12/31 05:06:10;;;;;;;17.23;11.38;;;;;;;5.95;63.07;95696.59;4918621;29;20039;-80
2021/12/31 05:08:36;;;;;;;10.45;8.85;;;;;;;5.92;63.02;95702.13;4937443;29;20058;-80
2021/12/31 05:11:01;;;;;;;10.25;7.78;;;;;;;5.90;63.27;95695.53;4937264;29;20452;-80
2021/12/31 05:13:32;;;;;;;9.57;7.20;;;;;;;5.80;63.35;95693.19;4919487;29;20072;-80
2021/12/31 05:16:02;;;;;;;14.63;7.63;;;;;;;5.72;63.39;95701.84;4934092;29;20453;-79
2021/12/31 05:18:28;;;;;;;7.72;6.07;;;;;;;5.65;63.89;95711.28;4995990;23;20115;-80
2021/12/31 05:20:53;;;;;;;10.15;6.75;;;;;;;5.58;63.74;95710.41;4936872;29;20118;-79
2021/12/31 05:23:18;;;;;;;9.27;6.75;;;;;;;5.65;63.81;95705.31;4900370;29;20055;-80
2021/12/31 05:25:44;;;;;;;11.13;8.25;;;;;;;5.72;63.54;95706.22;4912229;29;20499;-81
2021/12/31 05:28:12;;;;;;;12.77;9.93;;;;;;;5.80;63.14;95708.69;4937186;29;20051;-78
2021/12/31 05:30:38;;;;;;;15.45;10.23;;;;;;;5.87;62.72;95714.75;4934641;29;20424;-80
2021/12/31 05:33:03;;;;;;;16.45;12.40;;;;;;;5.88;62.89;95713.75;4988568;23;20035;-79
2021/12/31 05:35:29;;;;;;;13.25;10.00;;;;;;;5.96;63.11;95713.69;4919195;29;20047;-81
2021/12/31 05:37:54;;;;;;;23.70;11.65;;;;;;;5.98;62.98;95706.53;4939522;29;20043;-81
2021/12/31 05:40:20;;;;;;;32.40;19.92;;;;;;;6.06;63.09;95708.25;4946282;29;20555;-79
2021/12/31 05:42:45;;;;;;;30.17;18.42;;;;;;;6.06;62.08;95716.00;4944122;29;20039;-81
2021/12/31 05:45:16;;;;;;;26.50;17.83;;;;;;;6.00;62.33;95709.75;4947551;29;20043;-81
2021/12/31 05:47:47;;;;;;;36.42;20.92;;;;;;;5.98;62.43;95716.06;4946246;29;20040;-80
2021/12/31 05:50:19;;;;;;;26.85;16.52;;;;;;;6.02;62.41;95714.75;4943377;29;20551;-79
2021/12/31 05:52:47;;;;;;;28.27;16.63;;;;;;;6.06;62.02;95718.56;4921674;29;20114;-81
2021/12/31 05:55:13;;;;;;;21.88;13.68;;;;;;;6.07;61.89;95724.53;4945336;29;20046;-80
2021/12/31 05:57:38;;;;;;;26.50;12.38;;;;;;;5.97;62.02;95730.75;4924542;29;20031;-80
2021/12/31 06:00:07;;;;;;;27.45;13.57;;;;;;;5.84;62.72;95724.59;4940916;29;20042;-81
2021/12/31 06:02:33;;;;;;;32.47;16.52;;;;;;;5.74;63.52;95730.06;4946085;29;20039;-80
2021/12/31 06:05:01;;;;;;;32.30;16.63;;;;;;;5.68;63.91;95738.50;4945171;29;20460;-80
2021/12/31 06:07:26;;;;;;;29.65;15.90;;;;;;;5.61;63.97;95735.84;4911863;29;20094;-81
2021/12/31 06:09:52;;;;;;;21.02;12.20;;;;;;;5.56;63.58;95727.03;4943645;29;20031;-80
2021/12/31 06:12:18;;;;;;;18.17;11.10;;;;;;;5.58;63.92;95727.66;4913379;29;20400;-80
2021/12/31 06:14:43;;;;;;;17.58;11.07;;;;;;;5.60;63.89;95723.91;4927845;29;20078;-80
2021/12/31 06:17:09;;;;;;;14.15;9.82;;;;;;;5.62;63.89;95726.31;4896062;29;20460;-81
2021/12/31 06:19:35;;;;;;;9.30;7.75;;;;;;;5.65;63.63;95726.75;4925986;29;20036;-80
2021/12/31 06:22:00;;;;;;;10.07;7.80;;;;;;;5.64;63.95;95726.94;4944528;29;20039;-81
2021/12/31 06:24:25;;;;;;;11.27;7.82;;;;;;;5.65;64.02;95729.34;4944188;29;20035;-80
2021/12/31 06:29:20;;;;;;;20.08;11.90;;;;;;;5.83;63.75;95749.63;4966641;23;20066;-79
2021/12/31 06:31:45;;;;;;;31.40;18.30;;;;;;;5.90;63.84;95747.16;4938174;29;20411;-78
2021/12/31 06:34:10;;;;;;;60.30;34.30;;;;;;;6.06;63.13;95748.75;4918973;29;20043;-80
2021/12/31 06:36:36;;;;;;;53.75;30.10;;;;;;;6.24;62.65;95749.16;4943232;29;20043;-78
2021/12/31 06:39:04;;;;;;;54.63;30.63;;;;;;;6.34;62.08;95762.56;4926259;29;20032;-78
2021/12/31 06:41:29;;;;;;;64.18;31.80;;;;;;;6.46;61.74;95760.31;4942275;29;20095;-79
2021/12/31 06:43:55;;;;;;;39.13;23.23;;;;;;;6.56;61.54;95756.47;4935607;29;20785;-79
2021/12/31 06:46:22;;;;;;;26.90;16.05;;;;;;;6.60;60.45;95755.09;4935998;29;20040;-78
2021/12/31 06:48:48;;;;;;;32.90;18.13;;;;;;;6.75;60.29;95762.00;4922077;29;20032;-78
2021/12/31 06:51:13;;;;;;;15.25;9.50;;;;;;;6.83;59.67;95759.28;4921138;29;20054;-79
2021/12/31 06:53:44;;;;;;;11.50;7.15;;;;;;;6.84;59.95;95758.34;4938499;29;20038;-78
2021/12/31 06:56:10;;;;;;;8.18;6.40;;;;;;;6.86;59.77;95758.94;4919733;29;20106;-78
2021/12/31 06:58:37;;;;;;;8.88;6.78;;;;;;;6.85;59.74;95758.16;4920452;29;20035;-79
2021/12/31 07:01:02;;;;;;;7.88;6.68;;;;;;;6.95;59.05;95757.00;4905357;29;20134;-79
2021/12/31 07:05:57;;;;;;;17.10;8.35;;;;;;;7.07;59.25;95751.16;4997911;23;20050;-78
2021/12/31 07:08:23;;;;;;;11.85;7.90;;;;;;;7.07;59.05;95758.94;4962489;29;20047;-78
2021/12/31 07:10:48;;;;;;;11.77;8.00;;;;;;;7.12;59.44;95759.16;4969980;29;20050;-78
2021/12/31 07:13:13;;;;;;;10.23;7.97;;;;;;;7.17;59.05;95743.91;4967106;29;20046;-78
2021/12/31 07:15:40;;;;;;;10.77;7.38;;;;;;;7.25;59.27;95752.50;4916604;29;20043;-79
2021/12/31 07:18:06;;;;;;;13.45;8.10;;;;;;;7.36;58.73;95757.97;4931277;29;20431;-79
2021/12/31 07:20:34;;;;;;;11.88;8.15;;;;;;;7.46;58.53;95752.44;4917295;29;20028;-79
2021/12/31 07:23:06;;;;;;;12.48;8.73;;;;;;;7.59;58.25;95742.19;5005846;23;20054;-79
2021/12/31 07:25:32;;;;;;;28.30;14.45;;;;;;;7.73;58.39;95749.03;4949642;29;20057;-79
2021/12/31 07:27:57;;;;;;;23.33;14.57;;;;;;;7.77;58.23;95742.47;4952271;29;20111;-79
2021/12/31 07:30:23;;;;;;;31.30;17.85;;;;;;;7.83;58.13;95744.31;4920223;29;20047;-79
2021/12/31 07:32:48;;;;;;;41.22;21.05;;;;;;;7.99;58.83;95740.59;4946166;29;20020;-79
2021/12/31 07:35:14;;;;;;;55.38;31.23;;;;;;;8.10;58.79;95741.81;4966622;29;20035;-79
2021/12/31 07:37:39;;;;;;;55.25;33.95;;;;;;;8.24;58.17;95743.47;4965632;29;20031;-79
2021/12/31 07:40:06;;;;;;;48.33;27.52;;;;;;;8.36;57.94;95739.38;4963501;29;20082;-78
2021/12/31 07:42:32;;;;;;;38.65;21.83;;;;;;;8.46;58.00;95738.19;4964616;29;20053;-79
2021/12/31 07:44:57;;;;;;;32.90;18.65;;;;;;;8.54;57.33;95740.63;4930839;29;20035;-79
2021/12/31 07:47:22;;;;;;;26.10;16.55;;;;;;;8.58;57.59;95752.97;4941602;29;20035;-78
2021/12/31 07:49:48;;;;;;;9.45;6.65;;;;;;;8.64;57.11;95748.81;4946525;29;20110;-79
2021/12/31 07:52:13;;;;;;;14.18;7.90;;;;;;;8.66;56.31;95755.41;4939184;29;20027;-80
2021/12/31 07:54:39;;;;;;;10.82;8.35;;;;;;;8.62;56.43;95753.38;4906386;29;20027;-79
2021/12/31 07:57:07;;;;;;;9.18;7.15;;;;;;;8.64;56.94;95756.59;4953880;29;20042;-80
2021/12/31 07:59:32;;;;;;;15.25;8.55;;;;;;;8.64;56.51;95756.59;4930992;29;20097;-79
2021/12/31 08:01:58;;;;;;;12.43;7.97;;;;;;;8.75;55.93;95766.38;4937519;29;20555;-81
2021/12/31 08:04:23;;;;;;;11.05;7.53;;;;;;;8.72;55.38;95764.19;4919420;29;20110;-81
2021/12/31 08:06:49;;;;;;;11.38;7.35;;;;;;;8.62;55.95;95758.56;4931691;29;20031;-82
2021/12/31 08:09:14;;;;;;;10.75;7.18;;;;;;;8.49;56.25;95763.75;4929539;29;20058;-82
2021/12/31 08:11:41;;;;;;;17.08;8.07;;;;;;;8.39;56.10;95764.91;4937460;29;20051;-82
2021/12/31 08:14:06;;;;;;;11.38;7.95;;;;;;;8.12;56.97;95773.53;4904258;28;20912;-82
2021/12/31 08:16:33;;;;;;;13.38;9.18;;;;;;;8.03;57.70;95774.69;4936407;29;20059;-81
2021/12/31 08:18:58;;;;;;;17.23;9.70;;;;;;;8.02;56.97;95762.72;4938828;29;20381;-76
2021/12/31 08:21:24;;;;;;;12.18;9.55;;;;;;;8.06;57.61;95759.56;4946685;29;20023;-78
2021/12/31 08:23:49;;;;;;;12.65;9.25;;;;;;;8.18;56.95;95772.78;4915551;29;20480;-79
2021/12/31 08:26:15;;;;;;;18.70;9.55;;;;;;;8.35;57.33;95778.44;4949052;29;20476;-78
2021/12/31 08:28:40;;;;;;;11.65;9.00;;;;;;;8.35;56.80;95768.88;4944982;29;20523;-78
2021/12/31 08:31:08;;;;;;;16.25;9.93;;;;;;;8.26;56.85;95764.81;4918230;29;20039;-80
2021/12/31 08:33:34;;;;;;;16.50;10.55;;;;;;;8.20;56.63;95765.59;4902360;29;20043;-79
2021/12/31 08:36:02;;;;;;;13.07;9.07;;;;;;;8.15;57.78;95762.00;4933290;29;20039;-80
2021/12/31 08:38:27;;;;;;;13.75;9.32;;;;;;;8.21;58.24;95756.84;4937544;29;20046;-80
2021/12/31 08:40:54;;;;;;;14.23;9.23;;;;;;;8.29;57.45;95751.47;4919041;29;20028;-80
2021/12/31 08:43:20;;;;;;;12.25;10.25;;;;;;;8.30;57.31;95747.91;4936392;29;20031;-79
2021/12/31 08:45:45;;;;;;;14.80;9.73;;;;;;;8.43;57.72;95755.72;4950621;29;20389;-80
2021/12/31 08:48:11;;;;;;;13.40;9.07;;;;;;;8.56;57.38;95754.19;4934571;29;20070;-79
2021/12/31 08:51:02;;;;;;;15.45;8.45;;;;;;;8.59;56.57;95746.00;4919262;29;20050;-80
2021/12/31 08:53:28;;;;;;;15.98;9.93;;;;;;;8.46;57.05;95753.75;4934991;29;20492;-80
2021/12/31 08:55:53;;;;;;;15.00;10.93;;;;;;;8.39;57.31;95748.56;4949516;29;20075;-79
2021/12/31 08:58:19;;;;;;;13.48;10.23;;;;;;;8.47;57.31;95748.38;4932401;29;20031;-79
2021/12/31 09:00:44;;;;;;;14.27;10.00;;;;;;;8.29;57.71;95742.91;4900810;29;20039;-79
2021/12/31 09:05:48;;;;;;;14.20;10.02;;;;;;;8.38;57.00;95739.97;5041209;23;20103;-79
2021/12/31 09:08:14;;;;;;;14.38;10.27;;;;;;;8.42;56.96;95736.00;4939684;29;20083;-79
2021/12/31 09:10:39;;;;;;;13.35;9.43;;;;;;;8.49;57.63;95732.63;4904053;29;20507;-79
2021/12/31 09:13:08;;;;;;;12.23;9.90;;;;;;;8.64;57.22;95725.50;4896787;24;20051;-80
2021/12/31 09:15:33;;;;;;;13.70;10.50;;;;;;;8.83;56.83;95723.91;4936724;29;20035;-81
2021/12/31 09:17:59;;;;;;;16.52;9.95;;;;;;;8.99;55.48;95719.13;4939968;29;20169;-81
2021/12/31 09:20:25;;;;;;;14.25;10.93;;;;;;;9.15;55.51;95724.94;4940372;29;20757;-80
2021/12/31 09:22:57;;;;;;;17.33;10.57;;;;;;;9.26;54.80;95716.53;4921737;29;20024;-81
2021/12/31 09:25:23;;;;;;;15.10;10.27;;;;;;;9.45;54.53;95718.31;4940564;29;20031;-81
2021/12/31 09:27:48;;;;;;;17.65;9.80;;;;;;;9.56;54.32;95709.88;4941459;29;20042;-81
2021/12/31 09:30:16;;;;;;;14.02;10.05;;;;;;;9.64;54.23;95724.47;4939937;29;20035;-80
2021/12/31 09:32:42;;;;;;;15.60;9.73;;;;;;;9.68;54.39;95720.47;4998873;23;20130;-81
2021/12/31 09:35:08;;;;;;;14.90;10.07;;;;;;;9.69;54.37;95718.66;4945607;29;20035;-80
2021/12/31 09:37:33;;;;;;;24.65;10.60;;;;;;;9.70;54.05;95715.84;4949944;29;20023;-80
2021/12/31 09:40:00;;;;;;;22.35;9.93;;;;;;;9.79;54.41;95717.25;4915302;29;20046;-80
2021/12/31 09:42:28;;;;;;;12.18;9.90;;;;;;;9.95;54.01;95713.41;4914489;29;20509;-80
2021/12/31 09:44:54;;;;;;;16.58;10.07;;;;;;;10.20;53.33;95705.69;4916918;29;20032;-80
2021/12/31 09:47:19;;;;;;;15.07;10.20;;;;;;;10.39;52.53;95704.03;4914717;29;20038;-80
2021/12/31 09:49:47;;;;;;;13.57;9.75;;;;;;;10.47;52.64;95701.19;4902224;29;20047;-80
2021/12/31 09:54:45;;;;;;;17.52;10.13;;;;;;;10.78;52.15;95696.00;4986992;23;20087;-80
2021/12/31 09:57:20;;;;;;;17.20;9.15;;;;;;;11.07;52.01;95691.97;4938160;29;20040;-81
2021/12/31 09:59:46;;;;;;;11.32;8.43;;;;;;;11.30;50.98;95686.16;4921695;29;20039;-80
2021/12/31 10:02:13;;;;;;;15.90;8.68;;;;;;;11.34;50.52;95671.69;4908391;29;21022;-80
2021/12/31 10:05:05;;;;;;;14.75;8.90;;;;;;;11.56;50.67;95673.91;4921616;29;20050;-80
2021/12/31 10:07:30;;;;;;;14.18;9.00;;;;;;;11.75;50.12;95670.28;4920904;29;20039;-81
2021/12/31 10:10:15;;;;;;;17.02;8.77;;;;;;;11.89;49.75;95676.97;4923245;29;20248;-80
2021/12/31 10:12:47;;;;;;;12.23;8.23;;;;;;;11.91;49.27;95672.34;4921697;29;20036;-80
2021/12/31 10:15:12;;;;;;;14.27;7.43;;;;;;;11.89;49.20;95661.34;4941355;29;20082;-80
2021/12/31 10:17:38;;;;;;;9.43;7.30;;;;;;;11.92;49.35;95668.72;4940670;29;20032;-80
2021/12/31 10:20:05;;;;;;;10.95;6.90;;;;;;;11.94;49.64;95671.88;4923949;29;20103;-81
2021/12/31 10:22:30;;;;;;;8.80;6.53;;;;;;;11.96;49.00;95664.66;4901256;29;20041;-80
2021/12/31 10:24:56;;;;;;;9.40;7.30;;;;;;;11.76;49.49;95658.84;4935829;29;20039;-81
2021/12/31 10:27:21;;;;;;;9.25;7.30;;;;;;;11.71;49.88;95650.88;4921709;29;20058;-81
2021/12/31 10:29:50;;;;;;;11.07;6.93;;;;;;;11.67;50.39;95649.72;4939044;29;20040;-81
2021/12/31 10:32:16;;;;;;;13.43;7.22;;;;;;;11.74;50.41;95645.25;4941920;29;20031;-81
2021/12/31 10:34:41;;;;;;;15.38;7.63;;;;;;;11.83;49.68;95645.75;4942834;29;20035;-81
2021/12/31 10:37:14;;;;;;;9.15;6.57;;;;;;;11.89;49.71;95643.09;4941378;29;20039;-80
2021/12/31 10:39:40;;;;;;;9.75;7.32;;;;;;;11.95;50.16;95636.19;4942417;29;20074;-81
2021/12/31 10:42:07;;;;;;;11.80;8.05;;;;;;;12.11;49.99;95640.81;4923700;29;20512;-81
2021/12/31 10:44:40;;;;;;;18.25;8.68;;;;;;;12.22;49.53;95627.03;4922931;29;20031;-81
2021/12/31 10:47:11;;;;;;;14.48;7.90;;;;;;;12.25;49.13;95623.97;4933827;23;20496;-80
2021/12/31 10:50:04;;;;;;;12.85;6.82;;;;;;;12.12;49.45;95628.56;4904069;29;20524;-81
2021/12/31 10:52:40;;;;;;;22.30;8.50;;;;;;;12.11;49.82;95632.19;4906066;29;20044;-81
2021/12/31 10:55:23;;;;;;;12.07;8.00;;;;;;;12.12;49.50;95625.94;4910949;29;20059;-81
2021/12/31 10:57:50;;;;;;;14.48;8.45;;;;;;;11.93;49.78;95627.81;4910136;29;20096;-80
2021/12/31 11:00:16;;;;;;;17.55;8.40;;;;;;;11.99;50.58;95626.91;4885727;29;20036;-80
2021/12/31 11:02:44;;;;;;;15.63;7.90;;;;;;;12.06;50.44;95632.84;4904780;29;20025;-81
2021/12/31 11:05:11;;;;;;;20.42;8.23;;;;;;;12.05;50.09;95630.47;4902537;29;20108;-81
2021/12/31 11:07:37;;;;;;;10.38;7.95;;;;;;;12.02;50.59;95631.69;4902884;29;20557;-81
2021/12/31 11:10:04;;;;;;;12.50;8.23;;;;;;;12.09;50.01;95627.19;4902685;29;20053;-80
2021/12/31 11:12:30;;;;;;;20.40;8.60;;;;;;;12.09;50.19;95631.59;4902364;29;20108;-80
2021/12/31 11:15:01;;;;;;;13.13;8.30;;;;;;;12.11;50.15;95624.38;4870492;29;20029;-80
2021/12/31 11:17:27;;;;;;;11.98;7.63;;;;;;;12.05;50.64;95626.06;4886339;29;20104;-80
2021/12/31 11:19:52;;;;;;;10.55;7.13;;;;;;;12.07;50.46;95634.44;4886461;29;20033;-80
2021/12/31 11:22:21;;;;;;;8.38;7.03;;;;;;;12.08;50.79;95630.81;4868172;29;20028;-80
2021/12/31 11:24:47;;;;;;;14.35;6.85;;;;;;;12.05;50.63;95631.25;4898810;29;20110;-80
2021/12/31 11:27:52;;;;;;;18.70;7.60;;;;;;;11.99;51.20;95632.91;4897088;29;20115;-80
2021/12/31 11:30:27;;;;;;;14.77;7.65;;;;;;;11.98;51.17;95631.31;4879671;29;20049;-80
2021/12/31 11:33:11;;;;;;;10.80;6.57;;;;;;;11.98;51.35;95631.31;4860883;29;20136;-80
2021/12/31 11:35:38;;;;;;;11.23;6.88;;;;;;;11.84;51.69;95626.50;4889503;29;20055;-79
2021/12/31 11:38:10;;;;;;;13.30;8.35;;;;;;;11.78;51.68;95628.16;4869466;29;20041;-79
2021/12/31 11:40:37;;;;;;;17.92;9.77;;;;;;;11.71;52.34;95630.03;4887536;29;20028;-81
2021/12/31 11:45:41;;;;;;;15.20;10.57;;;;;;;11.69;52.74;95627.63;5104081;23;20043;-80
2021/12/31 11:54:24;;;;;;;31.90;22.35;;;;;;;11.86;52.87;95619.25;4928783;29;20057;-79